createdAt,value
2022-10-14T00:03:23.762Z,4.75
2022-10-14T00:08:15.405Z,4.72
2022-10-14T00:13:07.025Z,5.60
2022-10-14T00:17:58.779Z,5.65
2022-10-14T00:22:50.549Z,6.15
2022-10-14T00:27:42.375Z,6.03
2022-10-14T00:32:34.020Z,5.60
2022-10-14T00:37:25.734Z,6.00
2022-10-14T00:42:17.410Z,5.05
2022-10-14T00:47:09.502Z,5.68
2022-10-14T00:52:23.073Z,6.82
2022-10-14T00:57:15.594Z,3.38
2022-10-14T01:02:07.235Z,5.22
2022-10-14T01:07:11.979Z,10.70
2022-10-14T01:12:28.645Z,4.55
2022-10-14T01:17:46.753Z,5.18
2022-10-14T01:22:44.787Z,4.40
2022-10-14T01:32:59.490Z,9.18
2022-10-14T01:38:03.428Z,5.45
2022-10-14T01:42:56.586Z,7.68
2022-10-14T01:47:53.473Z,7.93
2022-10-14T01:52:58.495Z,9.18
2022-10-14T01:57:53.957Z,11.10
2022-10-14T02:02:49.784Z,3.88
2022-10-14T02:07:48.125Z,8.25
2022-10-14T02:12:54.934Z,9.43
2022-10-14T02:18:01.909Z,9.77
2022-10-14T02:23:07.404Z,8.25
2022-10-14T02:28:02.545Z,9.15
2022-10-14T02:32:55.003Z,6.82
2022-10-14T02:37:49.221Z,7.90
2022-10-14T02:42:41.180Z,5.43
2022-10-14T02:47:32.898Z,5.95
2022-10-14T02:52:24.797Z,6.57
2022-10-14T02:57:16.680Z,7.47
2022-10-14T03:02:08.736Z,8.65
2022-10-14T03:07:00.679Z,7.60
2022-10-14T03:11:52.403Z,12.77
2022-10-14T03:16:44.115Z,10.10
2022-10-14T03:21:35.986Z,8.13
2022-10-14T03:26:28.489Z,11.45
2022-10-14T03:31:20.668Z,8.43
2022-10-14T03:36:12.339Z,7.55
2022-10-14T03:41:04.329Z,9.98
2022-10-14T03:45:56.493Z,5.78
2022-10-14T03:50:48.573Z,7.65
2022-10-14T03:55:40.446Z,6.10
2022-10-14T04:00:32.539Z,10.40
2022-10-14T04:05:24.900Z,7.75
2022-10-14T04:10:16.732Z,9.18
2022-10-14T04:15:08.898Z,8.20
2022-10-14T04:20:00.491Z,7.65
2022-10-14T04:24:52.289Z,7.90
2022-10-14T04:29:44.270Z,6.97
2022-10-14T04:34:35.993Z,7.18
2022-10-14T04:39:27.886Z,6.65
2022-10-14T04:44:19.785Z,4.75
2022-10-14T04:49:12.719Z,8.43
2022-10-14T04:54:04.639Z,6.95
2022-10-14T04:58:56.283Z,7.47
2022-10-14T05:03:48.472Z,7.38
2022-10-14T05:08:40.125Z,5.00
2022-10-14T05:13:32.004Z,10.13
2022-10-14T05:18:23.605Z,6.40
2022-10-14T05:23:15.346Z,4.53
2022-10-14T05:28:07.002Z,7.28
2022-10-14T05:32:58.789Z,4.68
2022-10-14T05:37:59.569Z,5.80
2022-10-14T05:42:55.374Z,5.07
2022-10-14T05:47:47.433Z,6.75
2022-10-14T05:52:40.763Z,9.02
2022-10-14T05:57:33.637Z,5.53
2022-10-14T06:02:25.542Z,5.65
2022-10-14T06:07:17.507Z,5.07
2022-10-14T06:12:09.772Z,5.18
2022-10-14T06:17:01.548Z,6.15
2022-10-14T06:21:53.286Z,5.22
2022-10-14T06:26:44.995Z,4.53
2022-10-14T06:31:36.651Z,6.35
2022-10-14T06:36:28.337Z,6.93
2022-10-14T06:41:19.906Z,5.07
2022-10-14T06:46:11.565Z,3.83
2022-10-14T06:51:03.390Z,4.60
2022-10-14T06:56:00.109Z,5.05
2022-10-14T07:00:51.738Z,7.18
2022-10-14T07:05:43.429Z,6.20
2022-10-14T07:10:35.110Z,8.88
2022-10-14T07:15:26.831Z,6.40
2022-10-14T07:20:18.687Z,6.90
2022-10-14T07:25:10.776Z,5.78
2022-10-14T07:30:02.407Z,5.22
2022-10-14T07:34:54.188Z,5.88
2022-10-14T07:39:45.887Z,6.97
2022-10-14T07:44:39.830Z,5.90
2022-10-14T07:49:31.760Z,3.08
2022-10-14T07:54:26.037Z,3.65
2022-10-14T07:59:21.525Z,2.13
2022-10-14T08:04:13.331Z,3.50
2022-10-14T08:09:06.171Z,2.83
2022-10-14T08:14:00.175Z,4.03
2022-10-14T08:18:53.095Z,2.08
2022-10-14T08:23:44.857Z,3.40
2022-10-14T08:28:36.488Z,3.35
2022-10-14T08:33:28.211Z,5.05
2022-10-14T08:38:24.742Z,5.38
2022-10-14T08:43:26.184Z,4.28
2022-10-14T08:48:22.617Z,2.70
2022-10-14T08:53:28.627Z,2.60
2022-10-14T08:58:32.098Z,3.42
2022-10-14T09:03:33.115Z,4.15
2022-10-14T09:08:31.006Z,3.83
2022-10-14T09:13:31.919Z,4.50
2022-10-14T09:18:29.550Z,2.10
2022-10-14T09:23:23.613Z,3.75
2022-10-14T09:28:15.650Z,2.05
2022-10-14T09:33:14.315Z,3.67
2022-10-14T09:38:07.232Z,1.75
2022-10-14T09:43:11.074Z,2.25
2022-10-14T09:48:07.759Z,3.95
2022-10-14T09:53:14.723Z,4.45
2022-10-14T09:58:14.226Z,1.93
2022-10-14T10:03:07.046Z,3.65
2022-10-14T10:08:04.261Z,2.80
2022-10-14T10:12:55.882Z,6.30
2022-10-14T10:17:48.513Z,3.55
2022-10-14T10:22:40.281Z,3.58
2022-10-14T10:27:38.113Z,1.63
2022-10-14T10:32:42.605Z,1.60
2022-10-14T10:38:00.611Z,4.70
2022-10-14T10:43:11.575Z,3.38
2022-10-14T10:48:09.878Z,5.43
2022-10-14T10:53:29.904Z,2.00
2022-10-14T10:58:50.513Z,3.15
2022-10-14T11:03:53.976Z,5.03
2022-10-14T11:09:24.107Z,1.52
2022-10-14T11:14:24.896Z,4.13
2022-10-14T11:19:21.673Z,3.03
2022-10-14T11:24:32.467Z,3.17
2022-10-14T11:29:46.695Z,4.05
2022-10-14T11:35:10.560Z,5.53
2022-10-14T11:40:29.092Z,3.83
2022-10-14T11:45:35.987Z,2.75
2022-10-14T11:50:36.518Z,3.33
2022-10-14T11:55:34.687Z,3.92
2022-10-14T12:00:51.498Z,4.30
2022-10-14T12:06:04.512Z,2.35
2022-10-14T12:11:29.202Z,4.30
2022-10-14T12:16:24.130Z,3.72
2022-10-14T12:21:28.061Z,4.90
2022-10-14T12:26:22.652Z,1.75
2022-10-14T12:31:35.609Z,1.85
2022-10-14T12:36:33.371Z,4.20
2022-10-14T12:41:40.457Z,1.85
2022-10-14T12:46:32.221Z,2.87
2022-10-14T12:51:24.826Z,6.70
2022-10-14T12:56:33.882Z,1.95
2022-10-14T13:01:25.547Z,4.47
2022-10-14T13:06:26.147Z,0.85
2022-10-14T13:11:28.335Z,6.45
2022-10-14T13:16:26.160Z,1.98
2022-10-14T13:21:31.355Z,4.25
2022-10-14T13:26:35.154Z,2.17
2022-10-14T13:31:37.768Z,2.03
2022-10-14T13:36:35.314Z,3.30
2022-10-14T13:41:31.331Z,4.45
2022-10-14T13:46:35.632Z,2.25
2022-10-14T13:51:58.375Z,1.85
2022-10-14T14:02:25.141Z,4.65
2022-10-14T14:12:31.441Z,3.08
2022-10-14T14:17:24.942Z,0.88
2022-10-14T14:22:27.087Z,3.45
2022-10-14T14:27:22.063Z,1.48
2022-10-14T14:32:25.669Z,3.25
2022-10-14T14:37:43.990Z,1.52
2022-10-14T14:42:39.925Z,1.80
2022-10-14T14:47:32.035Z,2.72
2022-10-14T14:52:24.241Z,1.10
2022-10-14T14:57:22.318Z,1.75
2022-10-14T15:02:20.381Z,1.58
2022-10-14T15:07:21.275Z,1.02
2022-10-14T15:12:30.667Z,1.35
2022-10-14T15:17:29.270Z,1.90
2022-10-14T15:22:27.122Z,1.60
2022-10-14T15:27:36.606Z,2.65
2022-10-14T15:32:28.291Z,4.13
2022-10-14T15:37:20.074Z,0.90
2022-10-14T15:42:12.456Z,1.98
2022-10-14T15:47:19.233Z,3.45
2022-10-14T15:52:16.173Z,1.95
2022-10-14T15:57:10.050Z,3.60
2022-10-14T16:02:35.903Z,4.90
2022-10-14T16:07:27.776Z,2.88
2022-10-14T16:12:19.441Z,4.40
2022-10-14T16:17:11.173Z,2.58
2022-10-14T16:22:03.360Z,2.33
2022-10-14T16:26:55.063Z,3.08
2022-10-14T16:31:51.086Z,2.13
2022-10-14T16:36:42.741Z,2.67
2022-10-14T16:41:34.365Z,2.00
2022-10-14T16:46:46.011Z,3.78
2022-10-14T16:51:37.804Z,2.35
2022-10-14T16:56:48.175Z,1.25
2022-10-14T17:01:39.980Z,1.48
2022-10-14T17:06:31.977Z,3.42
2022-10-14T17:11:24.265Z,1.50
2022-10-14T17:16:16.069Z,2.83
2022-10-14T17:21:12.227Z,3.08
2022-10-14T17:26:05.607Z,2.40
2022-10-14T17:30:58.148Z,2.78
2022-10-14T17:36:00.140Z,1.38
2022-10-14T17:40:52.435Z,5.30
2022-10-14T17:45:44.063Z,1.70
2022-10-14T17:50:38.649Z,3.70
2022-10-14T17:55:30.653Z,1.40
2022-10-14T18:00:22.335Z,4.50
2022-10-14T18:05:14.382Z,3.30
2022-10-14T18:10:06.310Z,3.17
2022-10-14T18:14:57.883Z,3.60
2022-10-14T18:19:52.159Z,6.68
2022-10-14T18:24:44.215Z,4.75
2022-10-14T18:29:35.981Z,5.20
2022-10-14T18:34:27.740Z,2.95
2022-10-14T18:39:20.598Z,5.20
2022-10-14T18:44:12.281Z,4.72
2022-10-14T18:49:06.010Z,2.92
2022-10-14T18:54:01.036Z,5.18
2022-10-14T18:58:58.763Z,4.47
2022-10-14T19:03:53.214Z,3.03
2022-10-14T19:08:45.814Z,1.95
2022-10-14T19:13:40.480Z,3.38
2022-10-14T19:18:32.254Z,2.67
2022-10-14T19:23:24.921Z,2.35
2022-10-14T19:28:17.149Z,4.95
2022-10-14T19:33:08.801Z,2.88
2022-10-14T19:38:00.416Z,2.65
2022-10-14T19:42:52.068Z,3.67
2022-10-14T19:47:43.741Z,2.10
2022-10-14T19:52:35.503Z,4.22
2022-10-14T19:57:27.433Z,4.25
2022-10-14T20:02:19.124Z,2.50
2022-10-14T20:07:10.749Z,3.92
2022-10-14T20:12:02.470Z,2.97
2022-10-14T20:16:55.922Z,2.00
2022-10-14T20:21:47.702Z,2.83
2022-10-14T20:26:39.435Z,3.25
2022-10-14T20:31:31.149Z,2.33
2022-10-14T20:36:23.946Z,1.42
2022-10-14T20:41:21.802Z,3.42
2022-10-14T20:46:14.358Z,2.50
2022-10-14T20:51:18.050Z,1.65
2022-10-14T20:56:12.057Z,1.25
2022-10-14T21:01:12.659Z,4.40
2022-10-14T21:06:06.529Z,2.78
2022-10-14T21:11:03.419Z,1.75
2022-10-14T21:15:55.671Z,1.10
2022-10-14T21:20:47.554Z,2.88
2022-10-14T21:25:39.418Z,2.70
2022-10-14T21:30:31.484Z,2.22
2022-10-14T21:35:23.394Z,3.17
2022-10-14T21:40:15.553Z,3.00
2022-10-14T21:45:07.450Z,4.50
2022-10-14T21:49:59.043Z,1.42
2022-10-14T21:54:50.665Z,1.52
2022-10-14T21:59:42.342Z,2.83
2022-10-14T22:04:37.452Z,2.65
2022-10-14T22:09:30.361Z,0.93
2022-10-14T22:14:22.042Z,1.80
2022-10-14T22:19:14.003Z,2.72
2022-10-14T22:29:21.309Z,1.75
2022-10-14T22:34:16.217Z,3.42
2022-10-14T22:39:12.918Z,2.25
2022-10-14T22:44:05.825Z,3.33
2022-10-14T22:48:58.565Z,1.17
2022-10-14T22:53:50.188Z,3.75
2022-10-14T22:58:41.861Z,3.55
2022-10-14T23:03:34.802Z,2.72
2022-10-14T23:08:26.593Z,2.95
2022-10-14T23:13:18.228Z,1.30
2022-10-14T23:18:09.870Z,0.88
2022-10-14T23:23:01.564Z,1.42
2022-10-14T23:27:53.208Z,2.45
2022-10-14T23:32:44.946Z,1.17
2022-10-14T23:37:36.676Z,1.45
2022-10-14T23:42:28.797Z,2.03
2022-10-14T23:47:20.709Z,2.15
2022-10-14T23:52:12.488Z,3.22
2022-10-14T23:57:04.233Z,2.70
